Time;durP1;ratioP1;P1;durP2;ratioP2;P2;SDS_P1;SDS_P2;PMS_P1;PMS_P2;Temp;Humidity;BMP_temperature;BMP_pressure;BME280_temperature;BME280_humidity;BME280_pressure;Samples;Min_cycle;Max_cycle;Signal;HPM_P1;HPM_P2
2021/05/02 00:00:34;;;;;;;8.27;4.73;;;;;;;;;;4993411;28;20437;-70
2021/05/02 00:03:01;;;;;;;5.33;3.40;;;;;;;;;;5000318;28;20988;-70
2021/05/02 00:05:28;;;;;;;7.70;5.70;;;;;;;;;;5013256;28;20918;-70
2021/05/02 00:07:55;;;;;;;5.37;3.17;;;;;;;;;;4994874;28;20420;-70
2021/05/02 00:10:21;;;;;;;6.17;4.53;;;;;;;;;;4993687;28;20392;-70
2021/05/02 00:12:48;;;;;;;13.43;4.97;;;;;;;;;;4993446;28;20931;-70
2021/05/02 00:15:15;;;;;;;9.13;5.60;;;;;;;;;;4993716;28;20445;-69
2021/05/02 00:17:43;;;;;;;9.93;4.20;;;;;;;;;;4991873;28;20457;-71
2021/05/02 00:20:09;;;;;;;8.90;3.87;;;;;;;;;;4991965;28;20643;-70
2021/05/02 00:22:36;;;;;;;5.40;3.47;;;;;;;;;;4993411;28;20793;-70
2021/05/02 00:25:06;;;;;;;8.13;4.70;;;;;;;;;;4993138;28;20408;-70
2021/05/02 00:27:35;;;;;;;6.63;3.73;;;;;;;;;;4995499;28;20448;-70
2021/05/02 00:30:01;;;;;;;9.60;4.60;;;;;;;;;;4974005;28;20446;-71
2021/05/02 00:32:28;;;;;;;5.83;4.03;;;;;;;;;;4984353;28;20778;-70
2021/05/02 00:34:54;;;;;;;10.03;3.50;;;;;;;;;;4993791;28;20417;-71
2021/05/02 00:37:20;;;;;;;10.80;6.13;;;;;;;;;;5003328;28;20535;-71
2021/05/02 00:39:46;;;;;;;5.00;2.50;;;;;;;;;;5010829;28;20415;-70
2021/05/02 00:42:15;;;;;;;5.73;5.23;;;;;;;;;;4992751;28;20398;-70
2021/05/02 00:44:45;;;;;;;5.00;3.10;;;;;;;;;;4992597;28;20461;-73
2021/05/02 00:47:32;;;;;;;6.10;4.37;;;;;;;;;;4992267;28;20868;-72
2021/05/02 00:50:08;;;;;;;10.23;4.10;;;;;;;;;;4992410;28;20406;-71
2021/05/02 00:52:41;;;;;;;10.73;3.67;;;;;;;;;;4992574;28;20398;-71
2021/05/02 00:55:13;;;;;;;10.00;5.10;;;;;;;;;;4992584;28;20380;-73
2021/05/02 00:57:42;;;;;;;8.93;4.50;;;;;;;;;;4995696;28;20456;-72
2021/05/02 01:00:10;;;;;;;6.10;3.53;;;;;;;;;;5012060;28;20476;-72
2021/05/02 01:02:36;;;;;;;6.57;3.63;;;;;;;;;;5010533;28;20786;-72
2021/05/02 01:05:12;;;;;;;6.40;3.40;;;;;;;;;;4992483;28;20816;-72
2021/05/02 01:07:39;;;;;;;9.50;4.13;;;;;;;;;;4990675;28;20463;-71
2021/05/02 01:10:08;;;;;;;9.37;3.80;;;;;;;;;;4992142;28;20418;-71
2021/05/02 01:12:37;;;;;;;4.93;4.10;;;;;;;;;;4992091;28;20424;-71
2021/05/02 01:15:03;;;;;;;4.63;4.23;;;;;;;;;;4984804;28;20431;-71
2021/05/02 01:17:32;;;;;;;6.63;3.33;;;;;;;;;;4992260;28;20461;-72
2021/05/02 01:19:58;;;;;;;6.33;2.83;;;;;;;;;;5012770;28;20488;-72
2021/05/02 01:22:29;;;;;;;14.07;4.20;;;;;;;;;;4995764;28;20444;-72
2021/05/02 01:24:55;;;;;;;11.37;4.73;;;;;;;;;;4992996;28;20444;-71
2021/05/02 01:27:29;;;;;;;7.83;3.13;;;;;;;;;;4992252;28;20406;-71
2021/05/02 01:29:55;;;;;;;9.33;4.90;;;;;;;;;;4991883;28;20405;-71
2021/05/02 01:32:21;;;;;;;4.87;3.00;;;;;;;;;;4989328;28;20442;-70
2021/05/02 01:34:50;;;;;;;3.60;3.20;;;;;;;;;;4991914;28;20445;-71
2021/05/02 01:37:16;;;;;;;4.87;3.37;;;;;;;;;;4991822;28;20456;-71
2021/05/02 01:39:42;;;;;;;5.10;2.47;;;;;;;;;;4990410;28;20416;-71
2021/05/02 01:42:08;;;;;;;2.40;2.20;;;;;;;;;;4991566;28;20923;-73
2021/05/02 01:44:37;;;;;;;8.73;3.73;;;;;;;;;;4991655;28;20431;-71
2021/05/02 01:47:09;;;;;;;4.07;2.50;;;;;;;;;;4989907;28;20413;-72
2021/05/02 01:49:36;;;;;;;8.73;3.20;;;;;;;;;;4991093;28;20487;-71
2021/05/02 01:52:02;;;;;;;7.90;5.03;;;;;;;;;;4991811;28;20404;-71
2021/05/02 01:54:32;;;;;;;5.97;3.67;;;;;;;;;;4991474;28;20425;-71
2021/05/02 01:56:58;;;;;;;1.87;1.63;;;;;;;;;;4988647;28;20475;-74
2021/05/02 01:59:27;;;;;;;3.00;2.70;;;;;;;;;;5003719;28;20420;-75
2021/05/02 02:01:56;;;;;;;3.60;2.77;;;;;;;;;;4990336;28;20440;-74
2021/05/02 02:04:23;;;;;;;3.17;2.53;;;;;;;;;;4991806;28;20442;-73
2021/05/02 02:06:49;;;;;;;7.37;3.73;;;;;;;;;;4990152;28;20417;-73
2021/05/02 02:09:18;;;;;;;13.67;4.97;;;;;;;;;;4991560;28;20757;-72
2021/05/02 02:11:44;;;;;;;4.10;1.83;;;;;;;;;;4992892;28;20769;-75
2021/05/02 02:14:10;;;;;;;5.87;3.87;;;;;;;;;;4994523;28;20417;-71
2021/05/02 02:16:36;;;;;;;8.43;3.60;;;;;;;;;;4991506;28;20533;-73
2021/05/02 02:19:02;;;;;;;4.57;2.60;;;;;;;;;;4990913;28;20455;-72
2021/05/02 02:21:28;;;;;;;5.63;3.20;;;;;;;;;;4990257;28;20474;-73
2021/05/02 02:24:03;;;;;;;6.30;3.63;;;;;;;;;;5016273;23;20490;-68
2021/05/02 02:26:41;;;;;;;4.40;2.90;;;;;;;;;;5029327;28;20423;-68
2021/05/02 02:29:08;;;;;;;5.53;2.43;;;;;;;;;;5030658;28;20398;-67
2021/05/02 02:31:34;;;;;;;12.57;4.90;;;;;;;;;;5031325;28;20380;-67
2021/05/02 02:34:03;;;;;;;7.40;2.20;;;;;;;;;;5016341;28;20434;-70
2021/05/02 02:36:28;;;;;;;11.23;3.20;;;;;;;;;;5012551;23;552834;-71
2021/05/02 02:38:54;;;;;;;9.13;4.50;;;;;;;;;;5032787;28;20417;-72
2021/05/02 02:41:21;;;;;;;9.10;6.53;;;;;;;;;;5018267;28;20423;-71
2021/05/02 02:43:52;;;;;;;5.03;3.17;;;;;;;;;;5014009;28;20407;-72
2021/05/02 02:46:19;;;;;;;4.67;3.27;;;;;;;;;;5033520;28;20456;-71
2021/05/02 02:48:46;;;;;;;8.87;4.37;;;;;;;;;;5015328;28;20774;-71
2021/05/02 02:51:13;;;;;;;6.93;2.87;;;;;;;;;;5015838;28;20407;-72
2021/05/02 02:53:40;;;;;;;11.20;4.23;;;;;;;;;;5015141;28;20507;-71
2021/05/02 02:56:07;;;;;;;5.97;3.43;;;;;;;;;;5015932;28;20434;-71
2021/05/02 02:58:35;;;;;;;3.67;2.40;;;;;;;;;;5025610;28;20438;-71
2021/05/02 03:01:02;;;;;;;4.73;2.47;;;;;;;;;;5034235;28;20372;-71
2021/05/02 03:03:30;;;;;;;6.13;4.50;;;;;;;;;;5020778;28;20416;-71
2021/05/02 03:05:57;;;;;;;4.43;2.70;;;;;;;;;;5014261;28;20412;-71
2021/05/02 03:08:24;;;;;;;6.07;3.27;;;;;;;;;;5015029;28;20407;-71
2021/05/02 03:10:51;;;;;;;5.97;3.67;;;;;;;;;;5015021;28;20400;-71
2021/05/02 03:13:17;;;;;;;4.53;2.43;;;;;;;;;;5014840;28;20454;-71
2021/05/02 03:15:43;;;;;;;9.93;3.17;;;;;;;;;;5014699;28;20410;-70
2021/05/02 03:18:29;;;;;;;6.60;3.27;;;;;;;;;;5014222;28;20436;-72
2021/05/02 03:20:56;;;;;;;4.70;2.40;;;;;;;;;;5014316;28;20402;-71
2021/05/02 03:23:33;;;;;;;3.47;3.13;;;;;;;;;;5014150;28;20473;-71
2021/05/02 03:26:04;;;;;;;3.13;2.83;;;;;;;;;;5014902;28;20470;-71
2021/05/02 03:28:35;;;;;;;4.43;2.30;;;;;;;;;;5014105;28;21117;-71
2021/05/02 03:31:02;;;;;;;7.27;3.67;;;;;;;;;;5014182;28;20400;-71
2021/05/02 03:33:32;;;;;;;6.10;3.07;;;;;;;;;;5013669;28;20412;-72
2021/05/02 03:35:59;;;;;;;5.50;3.50;;;;;;;;;;5013971;28;20404;-71
2021/05/02 03:38:41;;;;;;;8.03;4.20;;;;;;;;;;5014425;28;20485;-71
2021/05/02 03:41:08;;;;;;;3.83;1.97;;;;;;;;;;5013500;28;20939;-72
2021/05/02 03:43:37;;;;;;;6.03;3.03;;;;;;;;;;5014205;28;20403;-71
2021/05/02 03:46:03;;;;;;;6.97;3.97;;;;;;;;;;5014299;28;20442;-72
2021/05/02 03:48:28;;;;;;;2.17;1.97;;;;;;;;;;5012815;28;20920;-72
2021/05/02 03:50:54;;;;;;;9.37;3.27;;;;;;;;;;5014386;28;20415;-71
2021/05/02 03:53:20;;;;;;;6.13;4.63;;;;;;;;;;5014844;28;20503;-72
2021/05/02 03:55:47;;;;;;;10.40;2.80;;;;;;;;;;5013301;28;20447;-71
2021/05/02 03:58:14;;;;;;;7.80;3.80;;;;;;;;;;5019976;28;21041;-72
2021/05/02 04:00:40;;;;;;;4.13;2.73;;;;;;;;;;5015038;28;20419;-71
2021/05/02 04:03:06;;;;;;;5.67;2.73;;;;;;;;;;5016442;28;20480;-71
2021/05/02 04:05:33;;;;;;;9.13;4.23;;;;;;;;;;5015504;28;20414;-70
2021/05/02 04:07:59;;;;;;;5.87;2.27;;;;;;;;;;5015769;28;20934;-71
2021/05/02 04:10:25;;;;;;;10.73;5.77;;;;;;;;;;5016252;28;20423;-71
2021/05/02 04:12:51;;;;;;;4.20;3.27;;;;;;;;;;5016142;28;20419;-71
2021/05/02 04:15:17;;;;;;;7.23;3.83;;;;;;;;;;5015403;28;20404;-71
2021/05/02 04:17:43;;;;;;;4.43;3.23;;;;;;;;;;5014251;28;20823;-71
2021/05/02 04:20:09;;;;;;;4.10;3.53;;;;;;;;;;5015054;28;20400;-71
2021/05/02 04:22:36;;;;;;;5.43;3.90;;;;;;;;;;5015420;28;20418;-70
2021/05/02 04:25:02;;;;;;;4.30;3.67;;;;;;;;;;5016115;28;20411;-71
2021/05/02 04:27:27;;;;;;;11.37;4.20;;;;;;;;;;5015105;28;20440;-71
2021/05/02 04:29:56;;;;;;;4.97;3.93;;;;;;;;;;5014565;28;20405;-71
2021/05/02 04:32:22;;;;;;;3.40;3.10;;;;;;;;;;5015377;28;20484;-71
2021/05/02 04:34:48;;;;;;;9.80;4.40;;;;;;;;;;5014452;28;20962;-70
2021/05/02 04:37:14;;;;;;;4.63;2.33;;;;;;;;;;5013787;28;20990;-71
2021/05/02 04:39:40;;;;;;;5.07;3.03;;;;;;;;;;5012148;28;20411;-71
2021/05/02 04:42:06;;;;;;;4.57;3.00;;;;;;;;;;5013555;28;20409;-71
2021/05/02 04:44:32;;;;;;;11.67;3.77;;;;;;;;;;5011987;28;20411;-70
2021/05/02 04:47:00;;;;;;;8.20;4.27;;;;;;;;;;5012546;28;20446;-71
2021/05/02 04:49:26;;;;;;;7.17;2.73;;;;;;;;;;5011850;28;20506;-70
2021/05/02 04:51:52;;;;;;;4.20;3.77;;;;;;;;;;5013618;28;21069;-71
2021/05/02 04:54:20;;;;;;;13.80;6.57;;;;;;;;;;5013406;28;20760;-70
2021/05/02 04:56:46;;;;;;;8.70;3.97;;;;;;;;;;5012925;28;20462;-72
2021/05/02 04:59:12;;;;;;;7.27;4.90;;;;;;;;;;5027710;28;20412;-71
2021/05/02 05:01:38;;;;;;;8.50;4.23;;;;;;;;;;5028803;28;20414;-71
2021/05/02 05:04:06;;;;;;;6.23;2.87;;;;;;;;;;5012653;28;20403;-70
2021/05/02 05:06:32;;;;;;;5.87;4.10;;;;;;;;;;5012405;28;20547;-71
2021/05/02 05:08:57;;;;;;;7.20;2.90;;;;;;;;;;5012640;28;20410;-70
2021/05/02 05:11:23;;;;;;;11.53;4.37;;;;;;;;;;5012850;28;20458;-71
2021/05/02 05:13:49;;;;;;;8.90;5.03;;;;;;;;;;5013108;28;20507;-71
2021/05/02 05:16:16;;;;;;;3.37;2.80;;;;;;;;;;5012337;28;20434;-71
2021/05/02 05:18:42;;;;;;;6.20;2.90;;;;;;;;;;5011303;28;20467;-71
2021/05/02 05:21:08;;;;;;;5.73;2.57;;;;;;;;;;5017169;28;20390;-71
2021/05/02 05:23:33;;;;;;;8.87;4.10;;;;;;;;;;5016420;28;20421;-70
2021/05/02 05:25:59;;;;;;;6.60;2.80;;;;;;;;;;5018231;28;20397;-72
2021/05/02 05:28:25;;;;;;;6.60;3.90;;;;;;;;;;5023241;28;20401;-71
2021/05/02 05:30:52;;;;;;;3.90;2.60;;;;;;;;;;5031687;28;20418;-71
2021/05/02 05:33:18;;;;;;;6.77;4.60;;;;;;;;;;5024621;28;21033;-71
2021/05/02 05:35:44;;;;;;;8.93;4.27;;;;;;;;;;5012095;28;20418;-71
2021/05/02 05:38:10;;;;;;;6.50;5.00;;;;;;;;;;5011700;28;20466;-70
2021/05/02 05:40:36;;;;;;;9.20;4.27;;;;;;;;;;5011719;28;20807;-70
2021/05/02 05:43:03;;;;;;;11.13;5.33;;;;;;;;;;5011999;28;20428;-70
2021/05/02 05:45:29;;;;;;;9.00;3.60;;;;;;;;;;5011910;28;20419;-70
2021/05/02 05:47:55;;;;;;;12.57;4.23;;;;;;;;;;5007124;28;20466;-70
2021/05/02 05:50:22;;;;;;;3.30;2.67;;;;;;;;;;4999230;28;20431;-71
2021/05/02 05:52:51;;;;;;;5.10;2.93;;;;;;;;;;5010580;28;20419;-70
2021/05/02 05:55:17;;;;;;;3.13;2.83;;;;;;;;;;5010714;28;20427;-70
2021/05/02 05:57:50;;;;;;;4.10;3.77;;;;;;;;;;5013897;28;20892;-70
2021/05/02 06:00:16;;;;;;;4.53;3.17;;;;;;;;;;5011387;28;20903;-72
2021/05/02 06:02:42;;;;;;;6.83;2.37;;;;;;;;;;5011112;28;20451;-72
2021/05/02 06:05:09;;;;;;;4.73;1.83;;;;;;;;;;5017152;28;20906;-72
2021/05/02 06:07:35;;;;;;;4.67;2.70;;;;;;;;;;5012197;28;20421;-72
2021/05/02 06:10:01;;;;;;;3.57;1.30;;;;;;;;;;5002095;28;20802;-72
2021/05/02 06:12:27;;;;;;;2.50;2.30;;;;;;;;;;5011110;28;20784;-72
2021/05/02 06:14:53;;;;;;;4.60;1.80;;;;;;;;;;5010131;28;20790;-73
2021/05/02 06:17:19;;;;;;;2.70;2.50;;;;;;;;;;5008770;28;20471;-72
2021/05/02 06:19:45;;;;;;;6.17;2.80;;;;;;;;;;5008765;28;20411;-72
2021/05/02 06:22:11;;;;;;;7.17;2.33;;;;;;;;;;5011134;28;20503;-73
2021/05/02 06:24:37;;;;;;;3.60;2.97;;;;;;;;;;5012014;28;20447;-72
2021/05/02 06:27:03;;;;;;;5.07;2.83;;;;;;;;;;5010940;28;20475;-71
2021/05/02 06:29:29;;;;;;;5.43;3.00;;;;;;;;;;5010990;28;20820;-72
2021/05/02 06:31:55;;;;;;;4.77;3.03;;;;;;;;;;5010463;28;20425;-72
2021/05/02 06:34:21;;;;;;;2.30;1.53;;;;;;;;;;5011393;28;20411;-71
2021/05/02 06:36:47;;;;;;;6.17;2.53;;;;;;;;;;5010916;28;20463;-73
2021/05/02 06:39:13;;;;;;;2.80;1.43;;;;;;;;;;5010710;28;20409;-71
2021/05/02 06:41:44;;;;;;;3.17;1.57;;;;;;;;;;5011240;28;20736;-72
2021/05/02 06:44:10;;;;;;;1.30;1.20;;;;;;;;;;4995780;28;20982;-70
2021/05/02 06:46:38;;;;;;;3.03;2.10;;;;;;;;;;5010942;28;20500;-72
2021/05/02 06:49:05;;;;;;;5.13;2.77;;;;;;;;;;5011020;28;20408;-72
2021/05/02 06:51:32;;;;;;;2.00;1.70;;;;;;;;;;5007883;28;20416;-73
2021/05/02 06:53:58;;;;;;;5.00;3.07;;;;;;;;;;5010063;28;20940;-74
2021/05/02 06:56:24;;;;;;;2.83;1.73;;;;;;;;;;5009665;28;20455;-71
2021/05/02 06:58:51;;;;;;;5.93;3.00;;;;;;;;;;5014765;28;20424;-71
2021/05/02 07:01:17;;;;;;;5.77;2.17;;;;;;;;;;5020030;28;20423;-71
2021/05/02 07:03:43;;;;;;;3.10;2.80;;;;;;;;;;5023138;28;20570;-71
2021/05/02 07:06:09;;;;;;;2.07;1.43;;;;;;;;;;5018619;28;20425;-71
2021/05/02 07:08:36;;;;;;;3.00;2.23;;;;;;;;;;5027779;28;20370;-71
2021/05/02 07:11:03;;;;;;;1.70;1.60;;;;;;;;;;5014943;28;20414;-71
2021/05/02 07:13:29;;;;;;;4.37;2.63;;;;;;;;;;5024144;28;20412;-71
2021/05/02 07:15:55;;;;;;;6.93;1.90;;;;;;;;;;5024374;28;20510;-72
2021/05/02 07:18:21;;;;;;;9.10;1.80;;;;;;;;;;5010275;28;20627;-72
2021/05/02 07:20:50;;;;;;;3.83;3.53;;;;;;;;;;5027536;28;20401;-71
2021/05/02 07:23:16;;;;;;;6.63;2.77;;;;;;;;;;5015053;28;20432;-75
2021/05/02 07:25:42;;;;;;;2.30;1.80;;;;;;;;;;5014669;28;20498;-75
2021/05/02 07:28:09;;;;;;;3.30;1.97;;;;;;;;;;5030189;28;20847;-75
2021/05/02 07:31:01;;;;;;;3.17;2.30;;;;;;;;;;5021789;28;20431;-74
2021/05/02 07:33:27;;;;;;;3.70;2.17;;;;;;;;;;5031020;28;20500;-74
2021/05/02 07:35:54;;;;;;;9.73;2.73;;;;;;;;;;5024675;28;20421;-74
2021/05/02 07:38:20;;;;;;;1.03;0.77;;;;;;;;;;5027225;28;20832;-74
2021/05/02 07:40:46;;;;;;;3.47;2.40;;;;;;;;;;5022902;28;20412;-73
2021/05/02 07:43:12;;;;;;;2.37;1.70;;;;;;;;;;5023332;28;20487;-74
2021/05/02 07:45:38;;;;;;;5.13;2.93;;;;;;;;;;5026750;28;20423;-73
2021/05/02 07:48:04;;;;;;;3.17;2.03;;;;;;;;;;5021928;28;20420;-74
2021/05/02 07:50:33;;;;;;;1.90;1.60;;;;;;;;;;5025039;28;20417;-73
2021/05/02 07:52:59;;;;;;;1.80;1.70;;;;;;;;;;5021590;28;20395;-74
2021/05/02 07:55:25;;;;;;;2.13;1.87;;;;;;;;;;5024188;28;20426;-73
2021/05/02 07:57:51;;;;;;;2.43;1.77;;;;;;;;;;5022536;28;20430;-73
2021/05/02 08:00:19;;;;;;;1.93;1.77;;;;;;;;;;5023656;28;20440;-73
2021/05/02 08:02:45;;;;;;;2.40;2.10;;;;;;;;;;5019785;28;20450;-75
2021/05/02 08:05:12;;;;;;;3.47;2.90;;;;;;;;;;5018607;28;20383;-73
2021/05/02 08:07:38;;;;;;;3.90;2.23;;;;;;;;;;5017772;28;20414;-72
2021/05/02 08:10:04;;;;;;;1.37;1.20;;;;;;;;;;5018278;28;20384;-72
2021/05/02 08:12:30;;;;;;;2.33;2.00;;;;;;;;;;5018803;28;20376;-75
2021/05/02 08:14:56;;;;;;;1.53;1.07;;;;;;;;;;5016513;28;20903;-74
2021/05/02 08:17:22;;;;;;;5.60;2.10;;;;;;;;;;5017815;28;20983;-73
2021/05/02 08:19:48;;;;;;;1.23;1.00;;;;;;;;;;5013475;28;20424;-69
2021/05/02 08:22:18;;;;;;;1.63;1.47;;;;;;;;;;5009263;28;20407;-69
2021/05/02 08:24:44;;;;;;;2.40;2.20;;;;;;;;;;5008932;28;20382;-70
2021/05/02 08:27:10;;;;;;;1.77;1.50;;;;;;;;;;5012501;28;20523;-69
2021/05/02 08:29:36;;;;;;;3.43;1.87;;;;;;;;;;5011404;28;20416;-69
2021/05/02 08:32:02;;;;;;;4.27;1.70;;;;;;;;;;5012124;28;20418;-69
2021/05/02 08:34:28;;;;;;;2.07;1.83;;;;;;;;;;5012530;28;20387;-70
2021/05/02 08:36:59;;;;;;;4.30;1.70;;;;;;;;;;5030806;22;20461;-74
2021/05/02 08:39:25;;;;;;;2.43;2.20;;;;;;;;;;5025349;28;20495;-74
2021/05/02 08:41:53;;;;;;;3.80;2.43;;;;;;;;;;5022642;28;20455;-73
2021/05/02 08:44:24;;;;;;;5.03;1.93;;;;;;;;;;5025909;28;20458;-73
2021/05/02 08:46:51;;;;;;;5.63;3.37;;;;;;;;;;5028264;28;20421;-73
2021/05/02 08:49:18;;;;;;;2.50;2.30;;;;;;;;;;5039861;28;20436;-74
2021/05/02 08:51:44;;;;;;;4.13;2.30;;;;;;;;;;5031175;28;20405;-75
2021/05/02 08:54:15;;;;;;;3.70;3.00;;;;;;;;;;5031486;28;20432;-74
2021/05/02 08:56:44;;;;;;;3.40;1.90;;;;;;;;;;5031978;28;20462;-69
2021/05/02 08:59:10;;;;;;;3.90;1.90;;;;;;;;;;5047749;28;20916;-74
2021/05/02 09:01:36;;;;;;;2.30;1.57;;;;;;;;;;5052689;28;20392;-75
2021/05/02 09:04:03;;;;;;;5.17;2.07;;;;;;;;;;5040674;28;20775;-75
2021/05/02 09:06:32;;;;;;;2.10;1.90;;;;;;;;;;5030633;28;20485;-73
2021/05/02 09:09:02;;;;;;;5.53;3.20;;;;;;;;;;5031955;28;20383;-72
2021/05/02 09:11:33;;;;;;;1.47;1.30;;;;;;;;;;5032039;28;20379;-71
2021/05/02 09:14:01;;;;;;;3.73;2.00;;;;;;;;;;5032073;28;20945;-73
2021/05/02 09:16:27;;;;;;;1.60;1.17;;;;;;;;;;5031802;28;20491;-73
2021/05/02 09:18:57;;;;;;;4.50;2.40;;;;;;;;;;5031833;28;20403;-74
2021/05/02 09:21:26;;;;;;;5.17;1.77;;;;;;;;;;5031692;28;20431;-73
2021/05/02 09:23:54;;;;;;;2.53;1.97;;;;;;;;;;5028422;28;21018;-72
2021/05/02 09:26:35;;;;;;;3.00;1.70;;;;;;;;;;5020466;28;20512;-73
2021/05/02 09:29:04;;;;;;;3.90;1.70;;;;;;;;;;5030435;28;20444;-70
2021/05/02 09:31:33;;;;;;;4.00;1.97;;;;;;;;;;5031554;28;20919;-70
2021/05/02 09:34:18;;;;;;;1.67;1.43;;;;;;;;;;5031488;28;20770;-70
2021/05/02 09:36:50;;;;;;;3.30;1.70;;;;;;;;;;5031121;28;20447;-70
2021/05/02 09:39:35;;;;;;;2.40;1.70;;;;;;;;;;5029856;28;20883;-70
2021/05/02 09:42:11;;;;;;;3.47;1.70;;;;;;;;;;5031463;28;20414;-70
2021/05/02 09:44:43;;;;;;;2.23;1.83;;;;;;;;;;5031333;28;20741;-70
2021/05/02 09:47:19;;;;;;;11.30;1.77;;;;;;;;;;5029006;28;20439;-71
2021/05/02 09:50:02;;;;;;;2.77;2.07;;;;;;;;;;5011790;28;20539;-76
2021/05/02 09:52:42;;;;;;;1.20;1.00;;;;;;;;;;5026400;28;20432;-77
2021/05/02 09:55:39;;;;;;;3.13;1.30;;;;;;;;;;5032115;28;20410;-76
2021/05/02 09:58:20;;;;;;;0.93;0.77;;;;;;;;;;5022050;28;20452;-78
2021/05/02 10:00:55;;;;;;;2.07;1.10;;;;;;;;;;5011540;28;20406;-73
2021/05/02 10:03:21;;;;;;;1.00;0.80;;;;;;;;;;5024786;28;20438;-77
2021/05/02 10:05:56;;;;;;;3.53;1.57;;;;;;;;;;5031662;28;20407;-73
2021/05/02 10:08:24;;;;;;;2.33;1.67;;;;;;;;;;5028665;28;20782;-75
2021/05/02 10:10:50;;;;;;;1.97;1.33;;;;;;;;;;5030953;28;20499;-74
2021/05/02 10:13:19;;;;;;;1.30;0.97;;;;;;;;;;5029356;28;20496;-74
2021/05/02 10:15:47;;;;;;;2.80;2.17;;;;;;;;;;5030843;28;20837;-73
2021/05/02 10:18:13;;;;;;;2.60;1.20;;;;;;;;;;5030170;28;20523;-73
2021/05/02 10:20:43;;;;;;;1.23;1.10;;;;;;;;;;5030812;28;20370;-73
2021/05/02 10:23:09;;;;;;;6.37;1.27;;;;;;;;;;5024927;28;20430;-72
2021/05/02 10:25:37;;;;;;;1.77;1.60;;;;;;;;;;5022302;28;20379;-73
2021/05/02 10:28:03;;;;;;;1.20;1.00;;;;;;;;;;5019366;28;20469;-73
2021/05/02 10:30:32;;;;;;;3.30;1.33;;;;;;;;;;5021198;28;20439;-73
2021/05/02 10:33:21;;;;;;;1.90;0.80;;;;;;;;;;5020224;28;20772;-74
2021/05/02 10:35:55;;;;;;;1.20;0.80;;;;;;;;;;5025869;28;20426;-73
2021/05/02 10:38:22;;;;;;;1.40;0.90;;;;;;;;;;5031052;28;20477;-74
2021/05/02 10:40:48;;;;;;;1.13;0.90;;;;;;;;;;5030993;28;20377;-75
2021/05/02 10:43:30;;;;;;;1.23;1.13;;;;;;;;;;5030982;28;20416;-75
2021/05/02 10:45:56;;;;;;;2.27;1.33;;;;;;;;;;5030538;28;20388;-75
2021/05/02 10:48:22;;;;;;;0.80;0.70;;;;;;;;;;5030660;28;20423;-71
2021/05/02 10:50:51;;;;;;;3.57;1.93;;;;;;;;;;5030359;28;20909;-71
2021/05/02 10:53:18;;;;;;;1.83;1.63;;;;;;;;;;5029289;28;20443;-74
2021/05/02 10:55:46;;;;;;;2.83;1.80;;;;;;;;;;5011224;28;20970;-75
2021/05/02 10:58:18;;;;;;;1.33;1.23;;;;;;;;;;5024236;28;20453;-73
2021/05/02 11:00:54;;;;;;;4.20;2.37;;;;;;;;;;5028533;28;20412;-74
2021/05/02 11:03:39;;;;;;;1.37;1.27;;;;;;;;;;5030685;28;20507;-75
2021/05/02 11:06:05;;;;;;;1.33;0.90;;;;;;;;;;5034102;28;20787;-74
2021/05/02 11:08:49;;;;;;;2.03;1.93;;;;;;;;;;5034651;28;20378;-72
2021/05/02 11:14:09;;;;;;;1.90;1.33;;;;;;;;;;5034299;28;20527;-76
2021/05/02 11:16:36;;;;;;;1.30;0.70;;;;;;;;;;5031374;28;20500;-76
2021/05/02 11:19:02;;;;;;;2.90;1.67;;;;;;;;;;5013022;28;20413;-76
2021/05/02 11:21:52;;;;;;;1.17;0.90;;;;;;;;;;5014844;28;20372;-71
2021/05/02 11:24:19;;;;;;;1.40;1.30;;;;;;;;;;5019509;28;20464;-75
2021/05/02 11:26:53;;;;;;;1.33;1.23;;;;;;;;;;5033439;28;20420;-75
2021/05/02 11:29:22;;;;;;;1.23;1.00;;;;;;;;;;5034147;28;20487;-75
2021/05/02 11:31:48;;;;;;;1.97;1.30;;;;;;;;;;5034191;28;20466;-74
2021/05/02 11:34:14;;;;;;;1.50;0.93;;;;;;;;;;5034223;28;20502;-74
2021/05/02 11:36:40;;;;;;;0.90;0.73;;;;;;;;;;5033905;28;20538;-75
2021/05/02 11:39:26;;;;;;;2.50;2.30;;;;;;;;;;5034220;28;20420;-74
2021/05/02 11:42:08;;;;;;;1.67;1.33;;;;;;;;;;5033704;28;20460;-74
2021/05/02 11:44:35;;;;;;;1.20;1.00;;;;;;;;;;5034102;28;20427;-75
2021/05/02 11:47:11;;;;;;;4.10;1.37;;;;;;;;;;5033960;28;20400;-75
2021/05/02 11:49:38;;;;;;;2.20;2.00;;;;;;;;;;5032089;28;20423;-76
2021/05/02 11:52:04;;;;;;;2.23;1.40;;;;;;;;;;5034007;28;20411;-75
2021/05/02 11:54:33;;;;;;;1.00;0.87;;;;;;;;;;5032779;28;20551;-76
2021/05/02 11:57:01;;;;;;;2.07;1.13;;;;;;;;;;5032309;28;20455;-75
2021/05/02 11:59:30;;;;;;;1.23;1.07;;;;;;;;;;5040181;28;20490;-75
2021/05/02 12:01:56;;;;;;;3.27;2.07;;;;;;;;;;5031934;28;20474;-75
2021/05/02 12:04:22;;;;;;;1.27;1.17;;;;;;;;;;5033328;28;20448;-75
2021/05/02 12:06:55;;;;;;;2.10;1.53;;;;;;;;;;5033222;28;21017;-74
2021/05/02 12:09:23;;;;;;;2.43;1.80;;;;;;;;;;5033028;28;20410;-74
2021/05/02 12:11:56;;;;;;;3.23;2.13;;;;;;;;;;5033059;28;20399;-75
2021/05/02 12:14:25;;;;;;;1.97;1.40;;;;;;;;;;5033589;28;20887;-75
2021/05/02 12:16:55;;;;;;;1.30;1.10;;;;;;;;;;5032142;28;20414;-74
2021/05/02 12:19:22;;;;;;;2.60;1.30;;;;;;;;;;5031902;28;20889;-74
2021/05/02 12:21:49;;;;;;;1.43;0.90;;;;;;;;;;5032929;28;20379;-75
2021/05/02 12:24:34;;;;;;;1.70;1.23;;;;;;;;;;5026761;28;20933;-74
2021/05/02 12:27:01;;;;;;;1.47;1.30;;;;;;;;;;5031209;28;20886;-76
2021/05/02 12:29:31;;;;;;;1.27;1.03;;;;;;;;;;5033255;28;20375;-74
2021/05/02 12:32:05;;;;;;;1.87;1.30;;;;;;;;;;5033025;28;20410;-74
2021/05/02 12:34:32;;;;;;;2.37;2.00;;;;;;;;;;5032875;28;20419;-75
2021/05/02 12:36:59;;;;;;;1.57;0.80;;;;;;;;;;5031543;28;20563;-75
2021/05/02 12:39:31;;;;;;;1.00;0.87;;;;;;;;;;5032575;28;20400;-75
2021/05/02 12:41:57;;;;;;;0.77;0.57;;;;;;;;;;5032635;28;20404;-75
2021/05/02 12:44:25;;;;;;;2.57;1.10;;;;;;;;;;5030892;28;20406;-75
2021/05/02 12:46:56;;;;;;;1.87;1.00;;;;;;;;;;5031086;28;20465;-75
2021/05/02 12:49:23;;;;;;;1.90;1.33;;;;;;;;;;5032459;28;20409;-76
2021/05/02 12:51:51;;;;;;;0.87;0.77;;;;;;;;;;5032397;28;20442;-76
2021/05/02 12:54:21;;;;;;;1.10;1.00;;;;;;;;;;5026551;28;20410;-76
2021/05/02 12:57:02;;;;;;;1.57;0.73;;;;;;;;;;5025711;28;20932;-76
2021/05/02 12:59:36;;;;;;;1.37;1.07;;;;;;;;;;5027660;28;20500;-75
2021/05/02 13:02:11;;;;;;;1.87;1.17;;;;;;;;;;5028884;28;20550;-76
2021/05/02 13:04:47;;;;;;;1.23;0.70;;;;;;;;;;5032484;28;20420;-76
2021/05/02 13:07:14;;;;;;;1.73;0.80;;;;;;;;;;5031681;28;20987;-76
2021/05/02 13:09:45;;;;;;;1.33;0.80;;;;;;;;;;5019554;28;20946;-75
2021/05/02 13:12:12;;;;;;;1.57;1.00;;;;;;;;;;5018857;28;20477;-75
2021/05/02 13:14:38;;;;;;;1.47;1.00;;;;;;;;;;5023006;28;20509;-76
2021/05/02 13:17:13;;;;;;;1.83;1.03;;;;;;;;;;5012251;28;20476;-77
2021/05/02 13:19:48;;;;;;;1.40;1.00;;;;;;;;;;5022981;28;20390;-76
2021/05/02 13:22:21;;;;;;;3.47;1.20;;;;;;;;;;5021837;28;20396;-74
2021/05/02 13:24:59;;;;;;;2.83;1.03;;;;;;;;;;5026967;28;20457;-74
2021/05/02 13:27:32;;;;;;;1.03;0.93;;;;;;;;;;5031178;28;20461;-74
2021/05/02 13:30:00;;;;;;;1.33;1.23;;;;;;;;;;5017707;28;20423;-76
2021/05/02 13:32:26;;;;;;;1.70;1.30;;;;;;;;;;5030280;28;20937;-76
2021/05/02 13:34:52;;;;;;;1.50;0.90;;;;;;;;;;5030870;28;20401;-76
2021/05/02 13:37:20;;;;;;;1.00;0.70;;;;;;;;;;5021397;28;20540;-74
2021/05/02 13:39:46;;;;;;;1.10;0.80;;;;;;;;;;5028554;28;20419;-73
2021/05/02 13:42:12;;;;;;;0.80;0.73;;;;;;;;;;5030645;28;20399;-75
2021/05/02 13:44:38;;;;;;;1.30;0.70;;;;;;;;;;5031151;28;20439;-77
2021/05/02 13:47:09;;;;;;;0.90;0.73;;;;;;;;;;5031767;28;20400;-77
2021/05/02 13:49:35;;;;;;;1.47;0.80;;;;;;;;;;5029819;28;20410;-78
2021/05/02 13:52:01;;;;;;;1.30;0.83;;;;;;;;;;5031722;28;20824;-76
2021/05/02 13:54:30;;;;;;;0.90;0.80;;;;;;;;;;5030076;28;20439;-75
2021/05/02 13:56:56;;;;;;;1.00;0.90;;;;;;;;;;5029920;28;20849;-76
2021/05/02 13:59:22;;;;;;;1.40;1.00;;;;;;;;;;5036740;28;20478;-75
2021/05/02 14:01:48;;;;;;;1.57;1.27;;;;;;;;;;5031374;28;20410;-76
2021/05/02 14:04:14;;;;;;;1.77;0.80;;;;;;;;;;5031458;28;20426;-76
2021/05/02 14:06:40;;;;;;;0.70;0.60;;;;;;;;;;5032333;28;20439;-77
2021/05/02 14:09:06;;;;;;;1.20;1.10;;;;;;;;;;5032921;28;20442;-77
2021/05/02 14:11:32;;;;;;;1.10;1.00;;;;;;;;;;5031806;28;20458;-76
2021/05/02 14:14:00;;;;;;;0.80;0.60;;;;;;;;;;5031192;28;20482;-75
2021/05/02 14:16:26;;;;;;;0.80;0.70;;;;;;;;;;5019729;28;20415;-75
2021/05/02 14:18:52;;;;;;;4.83;2.50;;;;;;;;;;5028798;28;20985;-75
2021/05/02 14:21:19;;;;;;;1.10;0.80;;;;;;;;;;5029965;28;20895;-74
2021/05/02 14:23:45;;;;;;;1.80;1.70;;;;;;;;;;5045224;23;20471;-73
2021/05/02 14:26:11;;;;;;;0.80;0.63;;;;;;;;;;5030384;28;20896;-74
2021/05/02 14:28:37;;;;;;;1.10;0.90;;;;;;;;;;5030222;28;20445;-73
2021/05/02 14:31:03;;;;;;;3.23;1.33;;;;;;;;;;5030303;28;20374;-72
2021/05/02 14:33:29;;;;;;;1.00;0.87;;;;;;;;;;5029198;28;20486;-72
2021/05/02 14:35:57;;;;;;;1.20;0.90;;;;;;;;;;5010842;28;20883;-73
2021/05/02 14:38:22;;;;;;;1.90;1.80;;;;;;;;;;5036457;23;20551;-69
2021/05/02 14:40:48;;;;;;;1.10;1.00;;;;;;;;;;5029819;28;20620;-69
2021/05/02 14:43:14;;;;;;;1.47;0.97;;;;;;;;;;5034230;28;20384;-69
2021/05/02 14:45:40;;;;;;;1.83;0.90;;;;;;;;;;5034782;28;20431;-69
2021/05/02 14:48:06;;;;;;;0.80;0.50;;;;;;;;;;5034671;28;20399;-69
2021/05/02 14:50:33;;;;;;;2.57;0.90;;;;;;;;;;5034253;28;20415;-69
2021/05/02 14:52:59;;;;;;;3.37;1.50;;;;;;;;;;5034413;28;20427;-69